Time;durP1;ratioP1;P1;durP2;ratioP2;P2;SDS_P1;SDS_P2;PMS_P1;PMS_P2;Temp;Humidity;BMP_temperature;BMP_pressure;BME280_temperature;BME280_humidity;BME280_pressure;Samples;Min_cycle;Max_cycle;Signal;HPM_P1;HPM_P2
2021/10/11 00:00:18;;;;;;;9.70;6.80;;;;;;;2.96;61.86;98000.71;116109;1182;71366;-66
2021/10/11 00:03:08;;;;;;;9.00;5.70;;;;;;;2.93;61.59;97997.17;116082;1184;68420;-63
2021/10/11 00:05:38;;;;;;;8.10;5.70;;;;;;;2.92;62.27;97989.30;116123;1182;70534;-63
2021/10/11 00:08:08;;;;;;;8.20;5.20;;;;;;;2.89;62.55;97990.42;116012;1183;59484;-63
2021/10/11 00:10:38;;;;;;;9.50;5.30;;;;;;;2.87;62.31;97986.54;116086;1184;59602;-64
2021/10/11 00:13:09;;;;;;;8.30;5.30;;;;;;;2.86;63.02;97987.42;115999;1184;71429;-66
2021/10/11 00:15:38;;;;;;;7.90;5.60;;;;;;;2.80;63.21;97987.97;115975;1184;68414;-65
2021/10/11 00:18:09;;;;;;;6.70;4.50;;;;;;;2.74;63.24;97987.30;116063;1182;68553;-65
2021/10/11 00:20:40;;;;;;;8.30;5.80;;;;;;;2.68;64.03;97986.95;116076;1182;59545;-64
2021/10/11 00:23:11;;;;;;;8.80;6.10;;;;;;;2.64;63.70;97988.31;116190;1182;59623;-63
2021/10/11 00:25:41;;;;;;;8.10;4.90;;;;;;;2.57;64.38;97986.12;116158;1182;70201;-65
2021/10/11 00:28:11;;;;;;;9.20;6.00;;;;;;;2.52;64.70;97979.38;116089;1184;68659;-65
2021/10/11 00:30:41;;;;;;;7.50;4.60;;;;;;;2.48;65.19;97977.11;116106;1184;68246;-63
2021/10/11 00:33:12;;;;;;;11.20;6.80;;;;;;;2.46;64.86;97976.15;115969;1184;59555;-66
2021/10/11 00:35:42;;;;;;;9.60;6.20;;;;;;;2.43;64.84;97972.95;116142;1183;59564;-64
2021/10/11 00:38:12;;;;;;;4.40;3.20;;;;;;;2.41;65.51;97970.11;116192;1183;71196;-64
2021/10/11 00:40:43;;;;;;;6.10;4.10;;;;;;;2.40;64.05;97969.10;116178;1182;67669;-63
2021/10/11 00:43:13;;;;;;;6.20;4.40;;;;;;;2.41;63.48;97964.78;116010;1182;68458;-62
2021/10/11 00:45:44;;;;;;;10.40;6.10;;;;;;;2.38;64.96;97964.51;115917;1184;59607;-65
2021/10/11 00:48:14;;;;;;;;;;;;;;;2.36;65.33;97960.63;115906;1183;59576;-65
2021/10/11 00:50:45;;;;;;;7.30;4.80;;;;;;;2.32;66.13;97956.95;116220;1184;70956;-66
2021/10/11 00:53:15;;;;;;;;;;;;;;;2.32;64.70;97951.13;116183;1182;68434;-65
2021/10/11 00:55:45;;;;;;;9.40;6.30;;;;;;;2.27;65.94;97948.67;116174;1182;69249;-65
2021/10/11 00:58:16;;;;;;;6.70;4.40;;;;;;;2.23;66.10;97945.55;116070;1182;59564;-62
2021/10/11 01:00:47;;;;;;;6.20;4.30;;;;;;;2.25;65.05;97942.05;116091;1183;59545;-64
2021/10/11 01:03:17;;;;;;;7.30;4.60;;;;;;;2.29;64.07;97944.34;116133;1182;70486;-63
2021/10/11 01:05:48;;;;;;;10.20;6.30;;;;;;;2.30;64.22;97941.36;116117;1183;66968;-65
2021/10/11 01:08:19;;;;;;;6.80;5.00;;;;;;;2.34;63.78;97938.49;116136;1184;69479;-65
2021/10/11 01:10:49;;;;;;;;;;;;;;;2.35;64.23;97937.10;116013;1184;59561;-63
2021/10/11 01:13:19;;;;;;;7.30;4.70;;;;;;;2.35;63.86;97942.27;115893;1184;59532;-64
2021/10/11 01:15:49;;;;;;;;;;;;;;;2.34;63.44;97938.52;116161;1184;70559;-64
2021/10/11 01:18:19;;;;;;;6.80;4.40;;;;;;;2.33;63.59;97935.80;116108;1184;67683;-63
2021/10/11 01:20:50;;;;;;;9.90;6.20;;;;;;;2.29;64.25;97931.58;116007;1184;69172;-65
2021/10/11 01:23:25;;;;;;;5.80;4.20;;;;;;;2.24;65.13;97930.55;116133;1183;59959;-65
2021/10/11 01:25:55;;;;;;;10.20;6.70;;;;;;;2.21;64.99;97927.20;116071;1183;59535;-67
2021/10/11 01:28:26;;;;;;;10.50;6.60;;;;;;;2.16;65.99;97923.25;116123;1184;70585;-66
2021/10/11 01:30:57;;;;;;;7.90;4.20;;;;;;;2.14;65.79;97924.02;116089;1184;68348;-65
2021/10/11 01:33:27;;;;;;;5.90;3.50;;;;;;;2.13;64.71;97918.34;116026;1182;69304;-65
2021/10/11 01:35:57;;;;;;;4.30;2.80;;;;;;;2.13;64.13;97914.07;116091;1183;59533;-64
2021/10/11 01:38:27;;;;;;;9.80;5.80;;;;;;;2.13;64.03;97908.38;116190;1183;59563;-63
2021/10/11 01:40:57;;;;;;;8.10;4.90;;;;;;;2.12;64.36;97903.06;116002;1183;70699;-65
2021/10/11 01:43:27;;;;;;;8.00;4.10;;;;;;;2.10;64.23;97900.55;116043;1182;67676;-64
2021/10/11 01:45:57;;;;;;;6.30;4.50;;;;;;;2.07;64.67;97898.77;116107;1184;67502;-65
2021/10/11 01:48:27;;;;;;;8.80;5.00;;;;;;;2.04;64.99;97898.84;116053;1184;59656;-63
2021/10/11 01:50:57;;;;;;;6.70;4.30;;;;;;;2.01;64.54;97897.23;115886;1184;59576;-65
2021/10/11 01:53:27;;;;;;;6.40;4.10;;;;;;;1.98;64.42;97892.83;115967;1184;70439;-67
2021/10/11 01:55:58;;;;;;;11.60;6.60;;;;;;;1.96;64.57;97887.77;116111;1184;68383;-66
2021/10/11 01:58:30;;;;;;;7.60;4.70;;;;;;;1.90;65.17;97888.95;116102;1183;68413;-65
2021/10/11 02:01:01;;;;;;;6.30;4.20;;;;;;;1.86;65.86;97888.73;116077;1183;59532;-65
2021/10/11 02:03:31;;;;;;;5.90;4.40;;;;;;;1.84;65.18;97888.98;116069;1184;59503;-65
2021/10/11 02:06:01;;;;;;;10.20;6.60;;;;;;;1.81;65.27;97888.90;116143;1182;70868;-66
2021/10/11 02:08:31;;;;;;;7.50;4.50;;;;;;;1.81;64.61;97889.77;116070;1183;67988;-66
2021/10/11 02:11:00;;;;;;;7.40;5.00;;;;;;;1.84;65.72;97887.27;116103;1183;68366;-65
2021/10/11 02:13:31;;;;;;;6.50;3.90;;;;;;;1.83;65.86;97883.50;115914;1184;59544;-64
2021/10/11 02:16:01;;;;;;;8.50;4.50;;;;;;;1.89;65.35;97888.66;115956;1184;59519;-64
2021/10/11 02:18:33;;;;;;;8.70;4.60;;;;;;;1.91;65.23;97889.82;116100;1182;71391;-66
2021/10/11 02:21:04;;;;;;;;;;;;;;;1.89;65.96;97890.52;116033;1183;68352;-63
2021/10/11 02:23:34;;;;;;;;;;;;;;;1.86;65.98;97888.73;115910;1184;68534;-63
2021/10/11 02:26:04;;;;;;;4.80;4.30;;;;;;;1.82;66.79;97886.44;116230;1182;59541;-63
2021/10/11 02:28:35;;;;;;;5.20;3.10;;;;;;;1.78;66.69;97881.26;116147;1182;59542;-65
2021/10/11 02:31:06;;;;;;;6.80;4.60;;;;;;;1.75;65.50;97878.05;116148;1182;71389;-65
2021/10/11 02:33:36;;;;;;;3.70;2.30;;;;;;;1.73;65.95;97878.64;116196;1184;67873;-63
2021/10/11 02:36:09;;;;;;;7.50;5.00;;;;;;;1.71;67.35;97875.77;116280;1182;67632;-65
2021/10/11 02:38:39;;;;;;;7.10;4.30;;;;;;;1.69;66.93;97872.60;116092;1183;59528;-63
2021/10/11 02:41:10;;;;;;;11.00;6.70;;;;;;;1.66;67.97;97869.59;115895;1184;59533;-62
2021/10/11 02:43:40;;;;;;;8.60;5.20;;;;;;;1.62;69.82;97867.98;116106;1183;72670;-64
2021/10/11 02:46:10;;;;;;;8.70;5.10;;;;;;;1.60;68.27;97870.27;116066;1183;68993;-68
2021/10/11 02:48:40;;;;;;;9.10;6.60;;;;;;;1.59;67.98;97869.30;116155;1184;68963;-65
2021/10/11 02:51:10;;;;;;;5.40;3.30;;;;;;;1.56;67.51;97866.77;116088;1183;60618;-65
2021/10/11 02:53:40;;;;;;;6.00;3.60;;;;;;;1.56;65.59;97865.56;116129;1184;59567;-67
2021/10/11 02:56:10;;;;;;;7.10;4.50;;;;;;;1.57;65.58;97867.63;116154;1184;71212;-67
2021/10/11 02:58:39;;;;;;;6.40;4.70;;;;;;;1.57;66.84;97863.67;116120;1183;68618;-67
2021/10/11 03:01:10;;;;;;;9.00;5.50;;;;;;;1.56;66.64;97867.83;116033;1184;69256;-65
2021/10/11 03:03:40;;;;;;;;;;;;;;;1.55;68.20;97865.95;116107;1183;60492;-65
2021/10/11 03:06:09;;;;;;;7.60;4.80;;;;;;;1.49;70.70;97864.06;115905;1184;59542;-65
2021/10/11 03:08:39;;;;;;;7.40;5.50;;;;;;;1.44;69.90;97856.83;116087;1183;70621;-63
2021/10/11 03:11:09;;;;;;;6.50;4.50;;;;;;;1.42;68.90;97855.17;116100;1184;67759;-63
2021/10/11 03:13:39;;;;;;;5.30;4.10;;;;;;;1.42;68.30;97846.58;116057;1184;68472;-63
2021/10/11 03:16:09;;;;;;;6.50;4.40;;;;;;;1.43;67.60;97845.52;116203;1183;59542;-65
2021/10/11 03:18:39;;;;;;;8.20;5.90;;;;;;;1.44;67.49;97841.36;116077;1182;60279;-65
2021/10/11 03:21:09;;;;;;;6.10;3.90;;;;;;;1.47;68.12;97841.80;116151;1182;71629;-64
2021/10/11 03:23:39;;;;;;;8.70;7.10;;;;;;;1.49;67.66;97837.80;116133;1183;67556;-63
2021/10/11 03:26:09;;;;;;;5.60;3.90;;;;;;;1.50;69.64;97831.40;116085;1184;69353;-64
2021/10/11 03:28:39;;;;;;;7.40;5.30;;;;;;;1.53;67.32;97826.84;116076;1183;59540;-64
2021/10/11 03:31:09;;;;;;;6.10;4.40;;;;;;;1.54;67.99;97824.59;116104;1184;59556;-64
2021/10/11 03:33:39;;;;;;;6.00;5.00;;;;;;;1.53;68.56;97818.09;115957;1183;71376;-65
2021/10/11 03:36:09;;;;;;;8.10;4.50;;;;;;;1.51;69.45;97812.96;116149;1184;68438;-65
2021/10/11 03:38:39;;;;;;;9.70;5.00;;;;;;;1.57;67.89;97805.42;116068;1184;69128;-66
2021/10/11 03:41:09;;;;;;;8.10;5.40;;;;;;;1.63;67.72;97801.61;116136;1184;59534;-66
2021/10/11 03:43:39;;;;;;;5.70;4.50;;;;;;;1.66;67.84;97802.40;116109;1183;59570;-64
2021/10/11 03:46:08;;;;;;;6.90;4.50;;;;;;;1.69;67.71;97797.84;116117;1183;71171;-63
2021/10/11 03:48:38;;;;;;;8.20;5.90;;;;;;;1.66;68.33;97800.86;116101;1184;68467;-63
2021/10/11 03:51:07;;;;;;;10.80;7.70;;;;;;;1.58;70.14;97803.84;116117;1183;68269;-67
2021/10/11 03:53:38;;;;;;;8.70;6.40;;;;;;;1.46;70.44;97804.55;116168;1183;59579;-64
2021/10/11 03:56:07;;;;;;;7.50;4.20;;;;;;;1.42;68.89;97799.34;116144;1182;59565;-65
2021/10/11 03:58:37;;;;;;;8.00;5.70;;;;;;;1.39;69.23;97792.23;116216;1183;70850;-63
2021/10/11 04:01:07;;;;;;;8.90;5.30;;;;;;;1.37;69.28;97792.44;115965;1184;67467;-64
2021/10/11 04:03:36;;;;;;;7.70;5.50;;;;;;;1.38;69.09;97793.46;115906;1183;69240;-65
2021/10/11 04:06:06;;;;;;;7.70;5.10;;;;;;;1.37;70.29;97790.74;116125;1183;59567;-64
2021/10/11 04:08:38;;;;;;;6.70;4.40;;;;;;;1.37;69.65;97789.20;115867;1184;59639;-64
2021/10/11 04:11:11;;;;;;;11.90;7.70;;;;;;;1.37;68.57;97784.90;116176;1183;71198;-64
2021/10/11 04:13:40;;;;;;;7.20;4.20;;;;;;;1.36;70.74;97784.75;116089;1183;67371;-62
2021/10/11 04:16:10;;;;;;;6.80;4.60;;;;;;;1.36;69.13;97783.91;116150;1183;69262;-65
2021/10/11 04:18:41;;;;;;;7.20;4.60;;;;;;;1.36;68.72;97780.30;116072;1184;59561;-65
2021/10/11 04:21:11;;;;;;;12.80;6.90;;;;;;;1.37;67.88;97781.98;116188;1182;59586;-65
2021/10/11 04:23:41;;;;;;;6.70;4.90;;;;;;;1.37;69.63;97772.52;115986;1179;71222;-66
2021/10/11 04:26:12;;;;;;;7.60;5.80;;;;;;;1.37;69.67;97772.70;115837;1184;68409;-64
2021/10/11 04:28:41;;;;;;;7.10;5.00;;;;;;;1.38;69.58;97773.70;116170;1184;68659;-65
2021/10/11 04:31:11;;;;;;;8.50;3.80;;;;;;;1.39;68.68;97771.09;116143;1182;59561;-65
2021/10/11 04:33:41;;;;;;;7.50;5.00;;;;;;;1.41;67.51;97764.67;116132;1184;59965;-64
2021/10/11 04:36:10;;;;;;;7.20;4.80;;;;;;;1.42;68.04;97765.35;116202;1184;69618;-65
2021/10/11 04:38:40;;;;;;;9.00;5.50;;;;;;;1.43;68.62;97766.68;116133;1184;67708;-66
2021/10/11 04:41:09;;;;;;;8.90;6.60;;;;;;;1.44;69.44;97765.80;116155;1183;69312;-64
2021/10/11 04:43:40;;;;;;;6.80;4.50;;;;;;;1.46;68.64;97765.74;116160;1182;59535;-64
2021/10/11 04:46:09;;;;;;;14.00;8.00;;;;;;;1.49;67.64;97763.41;116126;1182;59550;-66
2021/10/11 04:48:38;;;;;;;8.60;5.40;;;;;;;1.50;69.75;97767.66;115993;1184;70479;-64
2021/10/11 04:51:08;;;;;;;7.20;4.50;;;;;;;1.52;68.33;97764.84;116081;1183;67330;-66
2021/10/11 04:53:37;;;;;;;13.80;7.70;;;;;;;1.53;70.58;97769.98;116045;1184;69321;-63
2021/10/11 04:56:06;;;;;;;12.00;7.60;;;;;;;1.50;71.59;97771.59;116065;1182;59550;-64
2021/10/11 04:58:36;;;;;;;12.10;8.70;;;;;;;1.47;71.10;97771.20;115944;1178;59963;-65
2021/10/11 05:01:06;;;;;;;13.00;8.90;;;;;;;1.45;71.58;97772.46;116002;1184;70929;-63
2021/10/11 05:03:35;;;;;;;8.60;6.50;;;;;;;1.44;71.62;97774.20;115998;1174;68346;-65
2021/10/11 05:06:05;;;;;;;9.40;5.70;;;;;;;1.48;70.28;97773.90;115881;1183;68494;-64
2021/10/11 05:08:34;;;;;;;11.90;6.80;;;;;;;1.56;69.71;97772.82;116027;1183;59503;-63
2021/10/11 05:11:04;;;;;;;15.90;10.80;;;;;;;1.63;70.35;97773.45;116073;1183;59535;-66
2021/10/11 05:13:33;;;;;;;12.70;8.10;;;;;;;1.68;70.27;97770.89;115942;1184;70597;-65
2021/10/11 05:16:04;;;;;;;15.60;9.80;;;;;;;1.79;70.04;97777.59;115967;1184;67576;-64
2021/10/11 05:18:33;;;;;;;;;;;;;;;1.90;70.01;97773.11;116022;1184;69271;-64
2021/10/11 05:21:02;;;;;;;9.50;6.40;;;;;;;2.03;68.89;97773.70;116217;1183;59993;-63
2021/10/11 05:23:32;;;;;;;12.80;8.80;;;;;;;2.18;69.62;97777.55;116069;1174;59571;-66
2021/10/11 05:26:01;;;;;;;16.00;9.90;;;;;;;2.32;69.25;97769.48;115884;1184;71490;-64
2021/10/11 05:28:32;;;;;;;12.70;7.90;;;;;;;2.57;68.11;97763.96;116029;1182;68807;-64
2021/10/11 05:31:03;;;;;;;15.30;7.60;;;;;;;2.90;67.87;97762.30;116123;1183;70056;-62
2021/10/11 05:33:35;;;;;;;21.90;13.70;;;;;;;3.24;67.40;97762.22;116162;1182;59580;-67
2021/10/11 05:36:07;;;;;;;22.00;15.30;;;;;;;3.47;66.52;97760.15;115999;1184;59534;-63
2021/10/11 05:38:36;;;;;;;13.00;9.30;;;;;;;3.55;66.23;97764.65;116063;1184;70505;-67
2021/10/11 05:41:05;;;;;;;18.20;12.20;;;;;;;3.66;65.74;97762.85;116180;1184;68537;-68
2021/10/11 05:43:35;;;;;;;15.30;10.70;;;;;;;3.71;65.76;97762.48;116096;1184;68812;-68
2021/10/11 05:46:04;;;;;;;17.20;10.30;;;;;;;3.78;65.50;97760.11;116186;1183;60193;-66
2021/10/11 05:48:37;;;;;;;27.40;14.20;;;;;;;3.87;65.11;97754.77;116192;1183;59586;-66
2021/10/11 05:51:07;;;;;;;17.50;11.20;;;;;;;3.97;65.12;97758.30;116225;1183;70394;-66
2021/10/11 05:53:36;;;;;;;13.20;7.80;;;;;;;4.10;64.97;97757.09;116170;1184;67616;-66
2021/10/11 05:56:05;;;;;;;21.20;12.60;;;;;;;4.31;64.62;97751.56;116000;1184;69743;-64
2021/10/11 05:58:35;;;;;;;19.60;14.40;;;;;;;4.61;64.06;97747.34;116001;1183;59582;-66
2021/10/11 06:01:04;;;;;;;25.30;19.70;;;;;;;4.95;63.11;97739.43;116171;1184;59645;-68
2021/10/11 06:03:34;;;;;;;14.80;11.80;;;;;;;5.32;62.20;97745.55;116195;1184;71508;-64
2021/10/11 06:06:03;;;;;;;15.60;11.60;;;;;;;5.75;62.08;97746.09;116178;1184;66643;-67
2021/10/11 06:08:33;;;;;;;18.70;13.40;;;;;;;6.29;60.84;97742.60;115936;1184;68452;-67
2021/10/11 06:11:02;;;;;;;22.80;15.60;;;;;;;6.71;58.83;97742.35;116176;1182;59557;-65
2021/10/11 06:13:31;;;;;;;16.90;11.20;;;;;;;7.03;57.31;97742.08;116221;1184;59554;-65
2021/10/11 06:16:01;;;;;;;14.10;8.00;;;;;;;7.34;57.01;97740.59;116205;1183;72142;-66
2021/10/11 06:18:30;;;;;;;25.30;16.80;;;;;;;7.60;56.01;97740.51;115965;1184;68796;-67
2021/10/11 06:20:59;;;;;;;27.70;19.90;;;;;;;7.79;55.89;97741.20;115939;1184;69113;-65
2021/10/11 06:23:29;;;;;;;27.00;20.60;;;;;;;7.96;55.73;97742.46;115930;1184;59542;-64
2021/10/11 06:25:59;;;;;;;30.90;21.20;;;;;;;7.82;55.05;97747.09;116181;1184;59538;-65
2021/10/11 06:28:29;;;;;;;20.50;13.80;;;;;;;7.75;55.61;97743.89;116195;1183;70685;-62
2021/10/11 06:30:58;;;;;;;24.80;18.10;;;;;;;7.66;54.50;97740.69;116171;1184;68676;-67
2021/10/11 06:33:27;;;;;;;16.00;11.00;;;;;;;7.63;54.77;97742.78;116200;1184;69870;-65
2021/10/11 06:35:56;;;;;;;15.30;11.40;;;;;;;7.68;54.69;97743.40;116112;1183;59582;-65
2021/10/11 06:38:26;;;;;;;17.70;12.50;;;;;;;7.57;53.71;97743.85;116300;1183;59522;-64
2021/10/11 06:40:55;;;;;;;18.00;13.30;;;;;;;7.56;53.77;97742.13;116084;1176;71957;-67
2021/10/11 06:43:25;;;;;;;18.30;11.20;;;;;;;7.47;54.44;97740.73;116157;1183;68448;-65
2021/10/11 06:45:54;;;;;;;19.10;11.90;;;;;;;7.46;54.85;97737.69;116128;1183;69466;-66
2021/10/11 06:48:23;;;;;;;17.50;13.10;;;;;;;7.47;55.29;97743.15;115940;1184;59525;-65
2021/10/11 06:50:52;;;;;;;17.30;12.20;;;;;;;7.52;55.02;97741.48;116168;1184;59561;-66
2021/10/11 06:53:21;;;;;;;14.30;10.50;;;;;;;7.50;55.39;97745.05;116161;1183;71408;-68
2021/10/11 06:55:51;;;;;;;12.30;8.70;;;;;;;7.61;53.57;97745.16;116209;1183;67599;-69
2021/10/11 06:58:20;;;;;;;10.80;7.60;;;;;;;7.82;53.89;97742.95;116145;1183;69280;-67
2021/10/11 07:00:51;;;;;;;9.20;5.70;;;;;;;8.07;49.54;97738.38;116225;1183;59566;-66
2021/10/11 07:03:24;;;;;;;8.50;6.20;;;;;;;8.44;50.25;97733.53;116241;1184;59609;-65
2021/10/11 07:06:03;;;;;;;8.30;5.50;;;;;;;8.97;49.77;97733.94;116256;1183;70586;-68
2021/10/11 07:08:33;;;;;;;9.60;6.50;;;;;;;9.58;47.69;97731.20;116065;1184;67647;-67
2021/10/11 07:11:04;;;;;;;5.80;4.30;;;;;;;10.12;47.07;97730.65;116202;1183;69250;-66
2021/10/11 07:13:34;;;;;;;9.80;6.20;;;;;;;10.71;46.18;97731.08;116191;1184;59580;-67
2021/10/11 07:16:05;;;;;;;;;;;;;;;11.18;44.89;97729.54;116033;1182;59561;-68
2021/10/11 07:18:35;;;;;;;7.90;5.60;;;;;;;11.47;41.74;97732.91;116277;1183;70133;-67
2021/10/11 07:21:06;;;;;;;9.70;6.30;;;;;;;11.70;43.88;97732.18;116342;1184;67728;-65
2021/10/11 07:23:36;;;;;;;9.20;6.20;;;;;;;11.97;43.62;97729.70;116161;1183;68346;-66
2021/10/11 07:26:06;;;;;;;11.00;8.00;;;;;;;12.12;42.45;97729.48;116236;1182;59520;-66
2021/10/11 07:28:36;;;;;;;9.70;6.30;;;;;;;12.20;40.43;97726.23;116205;1183;59539;-68
2021/10/11 07:31:06;;;;;;;10.90;6.80;;;;;;;12.50;40.86;97722.40;116281;1184;71238;-66
2021/10/11 07:33:36;;;;;;;10.80;6.80;;;;;;;12.85;38.67;97718.67;116265;1184;67633;-64
2021/10/11 07:36:06;;;;;;;7.80;5.20;;;;;;;13.27;37.38;97719.69;116003;1184;68757;-67
2021/10/11 07:38:34;;;;;;;10.50;6.30;;;;;;;13.82;38.91;97720.32;116294;1183;59517;-65
2021/10/11 07:41:04;;;;;;;9.40;6.10;;;;;;;14.17;38.52;97717.44;116331;1184;59983;-67
2021/10/11 07:43:34;;;;;;;10.60;7.40;;;;;;;14.41;35.76;97715.63;116252;1183;72006;-68
2021/10/11 07:46:05;;;;;;;8.00;6.00;;;;;;;14.70;35.58;97714.62;116213;1183;67802;-66
2021/10/11 07:48:34;;;;;;;8.60;5.30;;;;;;;15.10;35.36;97716.84;116251;1184;68610;-65
2021/10/11 07:51:04;;;;;;;9.50;5.30;;;;;;;15.36;36.15;97715.23;116266;1183;59981;-67
2021/10/11 07:53:34;;;;;;;9.00;6.60;;;;;;;15.49;34.92;97707.27;116274;1182;59560;-68
2021/10/11 07:56:03;;;;;;;8.70;5.80;;;;;;;15.52;34.11;97703.33;116245;1183;71808;-65
2021/10/11 07:58:32;;;;;;;7.50;5.10;;;;;;;15.68;33.83;97701.98;116386;1183;67772;-67
2021/10/11 08:01:01;;;;;;;6.80;5.10;;;;;;;15.93;35.24;97698.17;116324;1183;69275;-68
2021/10/11 08:03:30;;;;;;;10.50;5.90;;;;;;;15.98;30.52;97692.96;116318;1183;59656;-66
2021/10/11 08:06:03;;;;;;;6.90;4.90;;;;;;;15.79;30.37;97691.28;116236;1184;59548;-68
2021/10/11 08:08:33;;;;;;;8.50;5.40;;;;;;;15.81;30.62;97686.58;116214;1184;70787;-67
2021/10/11 08:11:03;;;;;;;5.30;3.10;;;;;;;15.73;30.50;97680.19;116125;1174;68357;-67
2021/10/11 08:13:32;;;;;;;8.60;5.30;;;;;;;15.86;31.34;97678.95;116239;1183;69277;-68
2021/10/11 08:16:01;;;;;;;7.20;4.40;;;;;;;15.85;30.40;97674.97;116267;1184;59606;-65
2021/10/11 08:18:31;;;;;;;8.60;6.30;;;;;;;15.91;29.59;97674.23;116155;1183;59557;-69
2021/10/11 08:21:00;;;;;;;7.00;5.10;;;;;;;15.86;29.85;97669.04;116438;1182;71386;-66
2021/10/11 08:23:29;;;;;;;7.90;5.70;;;;;;;15.48;29.33;97665.73;116218;1181;67874;-67
2021/10/11 08:25:58;;;;;;;5.60;4.60;;;;;;;14.93;30.49;97664.61;115994;1184;69057;-70
2021/10/11 08:28:27;;;;;;;7.50;5.40;;;;;;;14.78;30.44;97661.52;116354;1182;59573;-68
2021/10/11 08:30:56;;;;;;;7.20;5.10;;;;;;;14.63;30.27;97663.45;116228;1182;59577;-66
2021/10/11 08:33:25;;;;;;;8.90;5.10;;;;;;;14.64;30.76;97661.29;116073;1182;70490;-65
2021/10/11 08:35:55;;;;;;;10.10;6.00;;;;;;;14.81;31.32;97663.33;116164;1183;68878;-65
2021/10/11 08:38:24;;;;;;;8.80;5.90;;;;;;;14.79;31.44;97661.77;116263;1183;68466;-66
2021/10/11 08:40:54;;;;;;;10.70;6.40;;;;;;;14.72;31.05;97660.79;116390;1182;59496;-66
2021/10/11 08:43:24;;;;;;;11.20;7.80;;;;;;;14.64;31.77;97657.39;116359;1182;59564;-69
2021/10/11 08:45:53;;;;;;;17.50;8.10;;;;;;;14.70;32.00;97656.26;116323;1183;69518;-70
2021/10/11 08:48:22;;;;;;;7.40;5.10;;;;;;;15.02;31.44;97652.90;116122;1184;67393;-66
2021/10/11 08:50:51;;;;;;;10.00;5.90;;;;;;;15.70;30.87;97650.44;116203;1182;68503;-65
2021/10/11 08:53:21;;;;;;;7.90;6.30;;;;;;;16.52;30.08;97643.48;116294;1184;59558;-69
2021/10/11 08:55:51;;;;;;;11.30;7.20;;;;;;;16.61;28.56;97644.18;116217;1184;59912;-65
2021/10/11 08:58:20;;;;;;;7.60;5.60;;;;;;;16.85;28.66;97640.59;116183;1183;71522;-65
2021/10/11 09:00:49;;;;;;;6.60;5.00;;;;;;;17.54;28.22;97638.83;116266;1184;67775;-67
2021/10/11 09:03:21;;;;;;;8.50;6.10;;;;;;;18.30;27.61;97636.44;116294;1182;69317;-67
2021/10/11 09:06:09;;;;;;;9.00;5.60;;;;;;;19.17;26.61;97637.27;116313;1182;59575;-67
2021/10/11 09:08:40;;;;;;;8.30;5.90;;;;;;;19.86;25.22;97635.84;116106;1184;59538;-68
2021/10/11 09:11:12;;;;;;;7.90;5.70;;;;;;;20.17;23.45;97634.80;116349;1183;71281;-68
2021/10/11 09:13:44;;;;;;;7.80;5.60;;;;;;;19.48;23.78;97639.98;116357;1183;68560;-69
2021/10/11 09:16:33;;;;;;;7.60;4.50;;;;;;;19.78;24.33;97639.38;116317;1182;69307;-68
2021/10/11 09:19:25;;;;;;;7.20;5.30;;;;;;;20.52;24.39;97629.73;116284;1183;59533;-69
2021/10/11 09:21:54;;;;;;;8.80;6.70;;;;;;;21.06;22.22;97627.63;116284;1183;59554;-70
2021/10/11 09:24:23;;;;;;;8.10;6.00;;;;;;;20.79;22.40;97623.91;116313;1182;70924;-69
2021/10/11 09:26:59;;;;;;;9.90;6.50;;;;;;;20.47;22.58;97625.16;116289;1183;66707;-66
2021/10/11 09:29:39;;;;;;;10.10;6.90;;;;;;;19.64;23.85;97630.34;116313;1183;68628;-68
2021/10/11 09:32:10;;;;;;;11.50;6.90;;;;;;;18.96;24.70;97632.33;116347;1183;59561;-67
2021/10/11 09:34:40;;;;;;;8.40;6.60;;;;;;;18.96;24.94;97625.50;116351;1182;59561;-69
2021/10/11 09:37:15;;;;;;;6.10;4.40;;;;;;;19.38;25.12;97625.39;115973;1184;71482;-69
2021/10/11 09:39:44;;;;;;;6.70;4.40;;;;;;;20.11;25.53;97619.17;116220;1184;67906;-68
2021/10/11 09:42:16;;;;;;;9.40;6.60;;;;;;;20.20;24.20;97616.94;116324;1184;69539;-67
2021/10/11 09:44:52;;;;;;;7.70;6.30;;;;;;;19.48;24.57;97619.69;116244;1184;59561;-66
2021/10/11 09:47:27;;;;;;;9.30;6.00;;;;;;;18.91;25.19;97617.46;116326;1184;59502;-68
2021/10/11 09:49:56;;;;;;;8.00;6.00;;;;;;;19.02;25.65;97617.79;116392;1182;70732;-68
2021/10/11 09:52:26;;;;;;;10.50;7.70;;;;;;;19.19;25.68;97612.31;116262;1182;67730;-68
2021/10/11 09:54:56;;;;;;;11.70;8.50;;;;;;;18.83;25.65;97607.59;116234;1183;68685;-69
2021/10/11 09:57:25;;;;;;;12.10;8.10;;;;;;;18.58;25.95;97601.10;116330;1183;59567;-69
2021/10/11 09:59:54;;;;;;;8.90;6.60;;;;;;;18.05;26.80;97597.89;116335;1182;59640;-67
2021/10/11 10:02:26;;;;;;;12.10;7.30;;;;;;;18.50;26.60;97595.98;116405;1182;71417;-71
2021/10/11 10:04:59;;;;;;;10.70;7.30;;;;;;;19.26;25.34;97596.38;116319;1183;68675;-68
2021/10/11 10:07:33;;;;;;;10.60;6.90;;;;;;;18.53;25.96;97593.70;116371;1182;69615;-69
2021/10/11 10:10:05;;;;;;;9.30;6.90;;;;;;;18.39;26.49;97591.21;116226;1184;59544;-68
2021/10/11 10:12:49;;;;;;;11.30;7.60;;;;;;;18.95;26.05;97592.72;116408;1182;59534;-68
2021/10/11 10:15:36;;;;;;;12.10;8.10;;;;;;;19.53;25.06;97590.56;116166;1184;70734;-71
2021/10/11 10:18:10;;;;;;;14.00;7.80;;;;;;;19.70;24.98;97586.77;116316;1182;69013;-68
2021/10/11 10:21:09;;;;;;;13.60;9.20;;;;;;;19.38;25.24;97587.91;116368;1182;69936;-69
2021/10/11 10:23:41;;;;;;;10.90;7.70;;;;;;;19.47;25.18;97586.39;115944;1185;59676;-69
2021/10/11 10:26:12;;;;;;;10.60;7.40;;;;;;;20.13;24.80;97580.16;116048;1187;59568;-70
2021/10/11 10:28:42;;;;;;;11.20;8.20;;;;;;;21.05;23.77;97578.40;116012;1186;70860;-69
2021/10/11 10:31:27;;;;;;;9.50;6.40;;;;;;;21.03;23.22;97576.88;116000;1186;66837;-72
2021/10/11 10:33:57;;;;;;;11.70;7.90;;;;;;;21.41;23.42;97571.95;116020;1186;69394;-70
2021/10/11 10:36:29;;;;;;;9.10;5.80;;;;;;;21.63;23.39;97565.05;116032;1185;59653;-70
2021/10/11 10:38:59;;;;;;;6.60;5.00;;;;;;;21.49;22.95;97565.42;116051;1185;59547;-69
2021/10/11 10:41:30;;;;;;;7.60;4.80;;;;;;;20.91;23.72;97561.05;116021;1185;71350;-71
2021/10/11 10:44:19;;;;;;;5.60;4.10;;;;;;;20.24;24.64;97554.39;116081;1185;68467;-69
2021/10/11 10:47:00;;;;;;;7.60;4.80;;;;;;;20.04;25.29;97553.41;116050;1185;69903;-71
2021/10/11 10:49:33;;;;;;;7.50;4.70;;;;;;;19.38;26.18;97555.47;116079;1185;59607;-68
2021/10/11 10:52:10;;;;;;;6.70;4.40;;;;;;;18.86;26.78;97552.20;116069;1184;59518;-68
2021/10/11 10:54:45;;;;;;;8.20;3.80;;;;;;;19.10;26.74;97551.64;116018;1185;71510;-69
2021/10/11 10:57:21;;;;;;;5.60;3.70;;;;;;;19.10;26.75;97546.64;115955;1186;68470;-69
2021/10/11 10:59:53;;;;;;;6.50;4.00;;;;;;;18.58;27.28;97544.63;116139;1182;69269;-71
2021/10/11 11:02:30;;;;;;;7.90;4.10;;;;;;;18.51;27.52;97543.95;116409;1182;59558;-67
2021/10/11 11:05:03;;;;;;;6.40;4.40;;;;;;;18.56;27.65;97542.04;116341;1182;59559;-72
2021/10/11 11:07:37;;;;;;;6.90;4.50;;;;;;;18.72;27.58;97540.41;116353;1182;71261;-69
2021/10/11 11:10:12;;;;;;;7.30;4.70;;;;;;;18.87;27.41;97536.73;116226;1184;68443;-69
2021/10/11 11:12:56;;;;;;;6.20;3.70;;;;;;;19.09;27.02;97530.19;116342;1182;69138;-71
2021/10/11 11:15:27;;;;;;;7.60;4.30;;;;;;;19.10;27.75;97526.91;116352;1184;59564;-71
2021/10/11 11:17:58;;;;;;;7.00;3.80;;;;;;;19.45;27.37;97518.91;116368;1182;59644;-71
2021/10/11 11:20:30;;;;;;;6.00;3.80;;;;;;;19.86;27.03;97516.11;116425;1182;72061;-69
2021/10/11 11:23:05;;;;;;;6.50;4.70;;;;;;;20.13;26.90;97512.92;116185;1182;68923;-68
2021/10/11 11:25:41;;;;;;;6.10;3.60;;;;;;;20.23;26.66;97505.43;116265;1183;69258;-69
2021/10/11 11:28:22;;;;;;;5.50;3.80;;;;;;;20.44;26.26;97500.30;116118;1184;59549;-70
2021/10/11 11:30:54;;;;;;;4.70;3.50;;;;;;;20.68;26.34;97501.86;116312;1183;59519;-70
2021/10/11 11:33:23;;;;;;;5.90;4.40;;;;;;;20.92;25.85;97496.00;116375;1182;71416;-69
2021/10/11 11:35:54;;;;;;;7.50;3.70;;;;;;;21.12;25.70;97492.59;116128;1183;68453;-70
2021/10/11 11:38:26;;;;;;;7.40;3.30;;;;;;;21.29;25.48;97489.39;116130;1184;69340;-71
2021/10/11 11:41:01;;;;;;;5.30;3.60;;;;;;;21.33;25.41;97492.73;116107;1184;59597;-69
2021/10/11 11:43:42;;;;;;;7.70;4.30;;;;;;;21.10;25.65;97494.46;116416;1182;59580;-67
2021/10/11 11:46:12;;;;;;;4.50;3.30;;;;;;;20.73;25.86;97492.23;116037;1184;70916;-72